createdAt,value
2023-02-26T00:01:53.184Z,8.02
2023-02-26T00:04:22.123Z,9.93
2023-02-26T00:06:57.401Z,10.05
2023-02-26T00:09:28.350Z,6.88
2023-02-26T00:11:57.411Z,8.45
2023-02-26T00:14:26.340Z,7.30
2023-02-26T00:17:18.408Z,5.35
2023-02-26T00:19:47.333Z,4.85
2023-02-26T00:22:16.263Z,8.00
2023-02-26T00:24:44.892Z,5.68
2023-02-26T00:27:13.822Z,9.30
2023-02-26T00:29:42.842Z,5.70
2023-02-26T00:32:12.440Z,6.00
2023-02-26T00:34:41.983Z,7.80
2023-02-26T00:37:19.371Z,4.05
2023-02-26T00:39:47.960Z,10.85
2023-02-26T00:42:16.871Z,6.95
2023-02-26T00:44:46.075Z,7.15
2023-02-26T00:47:41.676Z,7.78
2023-02-26T00:50:24.946Z,6.43
2023-02-26T00:52:59.629Z,10.57
2023-02-26T00:55:29.413Z,7.60
2023-02-26T00:57:58.620Z,7.65
2023-02-26T01:00:27.323Z,10.82
2023-02-26T01:02:56.257Z,10.70
2023-02-26T01:05:25.085Z,5.35
2023-02-26T01:08:35.941Z,6.88
2023-02-26T01:11:04.814Z,5.18
2023-02-26T01:13:33.476Z,6.80
2023-02-26T01:16:08.445Z,6.18
2023-02-26T01:18:50.240Z,5.90
2023-02-26T01:21:22.922Z,6.10
2023-02-26T01:23:53.315Z,13.07
2023-02-26T01:26:30.449Z,10.13
2023-02-26T01:28:59.363Z,6.25
2023-02-26T01:31:57.604Z,6.50
2023-02-26T01:34:38.468Z,8.35
2023-02-26T01:37:38.703Z,4.82
2023-02-26T01:40:25.914Z,6.40
2023-02-26T01:42:56.984Z,5.32
2023-02-26T01:45:37.674Z,8.35
2023-02-26T01:48:09.569Z,5.45
2023-02-26T01:50:38.925Z,7.50
2023-02-26T01:53:23.244Z,6.95
2023-02-26T01:56:02.384Z,4.40
2023-02-26T01:58:34.271Z,3.85
2023-02-26T02:01:03.294Z,5.47
2023-02-26T02:03:34.242Z,5.22
2023-02-26T02:06:07.304Z,3.75
2023-02-26T02:08:37.113Z,8.13
2023-02-26T02:11:08.258Z,5.57
2023-02-26T02:13:43.440Z,5.65
2023-02-26T02:16:38.416Z,5.30
2023-02-26T02:19:28.899Z,7.20
2023-02-26T02:22:15.396Z,9.45
2023-02-26T02:25:14.979Z,8.73
2023-02-26T02:28:04.717Z,10.30
2023-02-26T02:30:52.754Z,5.00
2023-02-26T02:33:27.223Z,6.65
2023-02-26T02:36:03.099Z,3.47
2023-02-26T02:38:44.583Z,6.47
2023-02-26T02:41:21.813Z,3.97
2023-02-26T02:43:51.388Z,6.43
2023-02-26T02:46:35.624Z,4.50
2023-02-26T02:49:07.312Z,5.97
2023-02-26T02:51:43.420Z,9.95
2023-02-26T02:54:13.642Z,6.57
2023-02-26T02:57:20.038Z,4.70
2023-02-26T02:59:51.515Z,9.15
2023-02-26T03:02:31.183Z,4.28
2023-02-26T03:05:00.378Z,6.88
2023-02-26T03:07:32.074Z,4.90
2023-02-26T03:10:00.860Z,7.82
2023-02-26T03:12:33.972Z,5.55
2023-02-26T03:15:03.392Z,11.20
2023-02-26T03:17:38.370Z,4.65
2023-02-26T03:20:21.416Z,7.40
2023-02-26T03:23:19.807Z,4.72
2023-02-26T03:26:02.097Z,6.80
2023-02-26T03:28:42.895Z,4.72
2023-02-26T03:31:18.604Z,7.70
2023-02-26T03:34:07.811Z,6.40
2023-02-26T03:36:50.382Z,5.10
2023-02-26T03:39:31.645Z,5.22
2023-02-26T03:42:10.814Z,8.98
2023-02-26T03:44:47.369Z,3.17
2023-02-26T03:47:17.705Z,4.63
2023-02-26T03:50:21.286Z,12.20
2023-02-26T03:52:51.241Z,3.93
2023-02-26T03:55:23.153Z,4.63
2023-02-26T03:57:51.838Z,5.93
2023-02-26T04:00:21.213Z,5.68
2023-02-26T04:03:22.141Z,4.13
2023-02-26T04:05:52.161Z,5.15
2023-02-26T04:08:22.485Z,5.65
2023-02-26T04:11:08.844Z,7.80
2023-02-26T04:13:37.778Z,4.95
2023-02-26T04:16:07.242Z,4.45
2023-02-26T04:18:35.880Z,7.53
2023-02-26T04:21:04.500Z,4.15
2023-02-26T04:23:33.161Z,6.22
2023-02-26T04:26:01.878Z,4.35
2023-02-26T04:28:31.543Z,8.02
2023-02-26T04:31:00.241Z,5.72
2023-02-26T04:33:28.998Z,4.72
2023-02-26T04:35:57.044Z,5.70
2023-02-26T04:38:25.650Z,5.70
2023-02-26T04:40:54.331Z,4.93
2023-02-26T04:43:23.012Z,7.57
2023-02-26T04:45:51.706Z,6.32
2023-02-26T04:48:20.402Z,7.25
2023-02-26T04:50:49.438Z,8.55
2023-02-26T04:53:18.104Z,6.75
2023-02-26T04:55:51.324Z,6.35
2023-02-26T04:58:21.453Z,7.53
2023-02-26T05:00:51.184Z,5.82
2023-02-26T05:03:20.033Z,7.65
2023-02-26T05:05:49.160Z,10.05
2023-02-26T05:08:18.515Z,7.20
2023-02-26T05:10:47.695Z,5.60
2023-02-26T05:13:16.289Z,8.40
2023-02-26T05:15:45.037Z,8.25
2023-02-26T05:18:14.008Z,9.10
2023-02-26T05:20:42.800Z,12.13
2023-02-26T05:23:11.459Z,4.90
2023-02-26T05:25:40.078Z,6.15
2023-02-26T05:28:08.720Z,8.05
2023-02-26T05:30:37.342Z,7.47
2023-02-26T05:33:06.191Z,10.43
2023-02-26T05:35:34.900Z,6.30
2023-02-26T05:38:03.561Z,9.52
2023-02-26T05:40:32.202Z,9.02
2023-02-26T05:43:00.802Z,11.45
2023-02-26T05:45:29.391Z,6.55
2023-02-26T05:47:58.372Z,7.97
2023-02-26T05:50:27.060Z,6.00
2023-02-26T05:52:55.775Z,6.75
2023-02-26T05:55:24.389Z,9.23
2023-02-26T05:57:53.043Z,7.88
2023-02-26T06:00:22.003Z,9.43
2023-02-26T06:02:50.962Z,12.43
2023-02-26T06:05:19.586Z,9.38
2023-02-26T06:07:47.694Z,9.80
2023-02-26T06:10:16.521Z,7.40
2023-02-26T06:12:45.216Z,9.77
2023-02-26T06:15:14.076Z,9.20
2023-02-26T06:17:42.833Z,7.05
2023-02-26T06:20:12.166Z,13.93
2023-02-26T06:22:41.020Z,10.75
2023-02-26T06:25:10.189Z,7.28
2023-02-26T06:27:38.822Z,5.85
2023-02-26T06:30:08.204Z,5.65
2023-02-26T06:32:36.862Z,5.32
2023-02-26T06:35:06.512Z,5.22
2023-02-26T06:37:35.108Z,5.47
2023-02-26T06:40:03.979Z,6.03
2023-02-26T06:42:32.578Z,5.65
2023-02-26T06:45:01.301Z,5.43
2023-02-26T06:47:29.955Z,7.13
2023-02-26T06:49:58.493Z,6.75
2023-02-26T06:52:27.354Z,9.48
2023-02-26T06:54:55.928Z,6.10
2023-02-26T06:57:24.545Z,8.30
2023-02-26T06:59:53.242Z,7.90
2023-02-26T07:02:23.455Z,6.05
2023-02-26T07:04:52.065Z,9.30
2023-02-26T07:07:20.741Z,4.90
2023-02-26T07:09:49.382Z,6.00
2023-02-26T07:12:17.970Z,5.38
2023-02-26T07:14:47.358Z,7.72
2023-02-26T07:17:25.022Z,4.63
2023-02-26T07:19:54.914Z,7.35
2023-02-26T07:22:23.522Z,4.85
2023-02-26T07:24:51.936Z,8.20
2023-02-26T07:27:20.579Z,7.63
2023-02-26T07:29:49.201Z,6.13
2023-02-26T07:32:17.834Z,8.25
2023-02-26T07:34:46.547Z,8.82
2023-02-26T07:37:15.426Z,5.72
2023-02-26T07:39:44.141Z,8.15
2023-02-26T07:42:13.222Z,10.00
2023-02-26T07:44:41.892Z,5.95
2023-02-26T07:47:11.530Z,6.32
2023-02-26T07:49:40.421Z,5.85
2023-02-26T07:52:09.468Z,6.45
2023-02-26T07:54:39.261Z,6.00
2023-02-26T07:57:07.838Z,7.07
2023-02-26T07:59:36.521Z,6.63
2023-02-26T08:02:05.103Z,7.40
2023-02-26T08:04:34.455Z,4.93
2023-02-26T08:07:04.297Z,6.38
2023-02-26T08:09:35.797Z,5.25
2023-02-26T08:12:07.926Z,3.60
2023-02-26T08:14:36.880Z,11.73
2023-02-26T08:17:05.535Z,11.25
2023-02-26T08:19:34.384Z,8.77
2023-02-26T08:22:03.010Z,7.45
2023-02-26T08:24:31.677Z,5.93
2023-02-26T08:27:00.332Z,5.47
2023-02-26T08:29:28.942Z,10.82
2023-02-26T08:31:57.612Z,5.40
2023-02-26T08:34:26.617Z,6.75
2023-02-26T08:36:55.210Z,6.60
2023-02-26T08:39:23.787Z,7.82
2023-02-26T08:41:52.454Z,6.65
2023-02-26T08:44:21.043Z,5.18
2023-02-26T08:46:49.683Z,6.97
2023-02-26T08:49:18.456Z,3.97
2023-02-26T08:51:47.056Z,3.80
2023-02-26T08:54:15.802Z,9.20
2023-02-26T08:56:44.434Z,6.60
2023-02-26T08:59:14.650Z,5.35
2023-02-26T09:01:43.355Z,4.90
2023-02-26T09:04:14.722Z,5.93
2023-02-26T09:06:43.379Z,12.60
2023-02-26T09:09:12.358Z,4.63
2023-02-26T09:11:40.989Z,5.57
2023-02-26T09:14:09.685Z,4.53
2023-02-26T09:16:38.391Z,7.13
2023-02-26T09:19:08.330Z,5.47
2023-02-26T09:21:36.802Z,4.30
2023-02-26T09:24:05.677Z,7.65
2023-02-26T09:26:34.329Z,6.25
2023-02-26T09:29:02.942Z,6.43
2023-02-26T09:31:35.318Z,4.30
2023-02-26T09:34:04.068Z,5.35
2023-02-26T09:36:33.162Z,5.78
2023-02-26T09:39:02.262Z,6.78
2023-02-26T09:41:36.330Z,7.22
2023-02-26T09:44:26.076Z,5.90
2023-02-26T09:47:19.366Z,7.00
2023-02-26T09:49:48.136Z,7.22
2023-02-26T09:52:32.835Z,5.28
2023-02-26T09:55:07.547Z,9.43
2023-02-26T09:57:38.545Z,6.85
2023-02-26T10:00:20.416Z,5.28
2023-02-26T10:03:16.190Z,4.28
2023-02-26T10:06:06.017Z,5.10
2023-02-26T10:08:58.408Z,6.07
2023-02-26T10:11:36.661Z,7.10
2023-02-26T10:14:11.472Z,6.90
2023-02-26T10:16:43.111Z,7.40
2023-02-26T10:19:21.764Z,5.28
2023-02-26T10:21:50.304Z,6.95
2023-02-26T10:24:26.725Z,5.93
2023-02-26T10:27:39.880Z,5.85
2023-02-26T10:30:26.910Z,5.10
2023-02-26T10:33:05.779Z,5.18
2023-02-26T10:35:39.498Z,4.60
2023-02-26T10:38:13.967Z,6.65
2023-02-26T10:40:52.290Z,5.15
2023-02-26T10:43:24.973Z,5.70
2023-02-26T10:46:00.007Z,5.73
2023-02-26T10:48:51.215Z,6.50
2023-02-26T10:51:29.425Z,6.95
2023-02-26T10:54:15.006Z,5.97
2023-02-26T10:56:43.852Z,7.03
2023-02-26T10:59:12.808Z,6.10
2023-02-26T11:01:41.583Z,8.65
2023-02-26T11:04:14.834Z,7.75
2023-02-26T11:06:59.454Z,6.32
2023-02-26T11:09:47.962Z,5.88
2023-02-26T11:12:18.328Z,7.38
2023-02-26T11:14:48.854Z,5.57
2023-02-26T11:17:30.870Z,6.03
2023-02-26T11:20:01.768Z,8.75
2023-02-26T11:22:34.152Z,10.38
2023-02-26T11:25:02.825Z,8.93
2023-02-26T11:27:37.803Z,9.70
2023-02-26T11:30:12.682Z,8.52
2023-02-26T11:32:41.401Z,7.60
2023-02-26T11:35:11.498Z,6.57
2023-02-26T11:37:42.310Z,7.13
2023-02-26T11:40:15.404Z,7.22
2023-02-26T11:43:00.142Z,6.55
2023-02-26T11:45:28.838Z,8.50
2023-02-26T11:48:09.229Z,10.85
2023-02-26T11:50:45.915Z,6.15
2023-02-26T11:53:26.049Z,6.30
2023-02-26T11:56:00.491Z,8.10
2023-02-26T11:58:32.492Z,9.10
2023-02-26T12:01:03.641Z,11.05
2023-02-26T12:03:36.416Z,7.97
2023-02-26T12:06:05.832Z,6.30
2023-02-26T12:08:39.888Z,7.30
2023-02-26T12:11:32.531Z,6.20
2023-02-26T12:14:19.793Z,5.97
2023-02-26T12:17:08.343Z,6.20
2023-02-26T12:20:01.236Z,6.05
2023-02-26T12:22:48.856Z,8.18
2023-02-26T12:25:20.111Z,6.38
2023-02-26T12:28:00.428Z,5.78
2023-02-26T12:30:47.260Z,8.52
2023-02-26T12:33:33.420Z,7.13
2023-02-26T12:36:47.613Z,6.13
2023-02-26T12:39:40.563Z,7.50
2023-02-26T12:42:34.288Z,5.55
2023-02-26T12:45:15.162Z,6.60
2023-02-26T12:47:47.609Z,6.78
2023-02-26T12:50:42.846Z,6.65
2023-02-26T12:53:26.231Z,5.32
2023-02-26T12:56:13.062Z,6.82
2023-02-26T12:58:50.646Z,8.73
2023-02-26T13:01:59.604Z,8.73
2023-02-26T13:04:44.762Z,6.28
2023-02-26T13:07:51.047Z,7.35
2023-02-26T13:10:22.431Z,5.35
2023-02-26T13:13:16.288Z,10.15
2023-02-26T13:16:09.105Z,6.90
2023-02-26T13:19:02.047Z,8.25
2023-02-26T13:21:35.339Z,7.53
2023-02-26T13:24:24.786Z,9.35
2023-02-26T13:26:55.179Z,7.72
2023-02-26T13:29:28.763Z,6.28
2023-02-26T13:34:57.703Z,7.90
2023-02-26T13:37:31.169Z,6.68
2023-02-26T13:43:09.177Z,6.47
2023-02-26T13:46:02.653Z,6.32
2023-02-26T13:48:39.985Z,7.03
2023-02-26T13:51:37.693Z,6.53
2023-02-26T13:54:26.428Z,6.72
2023-02-26T13:57:22.599Z,9.63
2023-02-26T13:59:57.146Z,2.85
2023-02-26T14:02:53.575Z,6.72
2023-02-26T14:05:47.892Z,6.35
2023-02-26T14:08:22.349Z,6.50
2023-02-26T14:11:05.772Z,7.47
2023-02-26T14:13:40.709Z,8.27
2023-02-26T14:16:23.813Z,5.18
2023-02-26T14:18:54.150Z,6.78
2023-02-26T14:21:28.601Z,7.90
2023-02-26T14:24:08.549Z,6.13
2023-02-26T14:26:38.520Z,4.55
2023-02-26T14:29:06.446Z,4.75
2023-02-26T14:31:52.625Z,7.03
2023-02-26T14:34:32.836Z,5.80
2023-02-26T14:37:14.559Z,5.60
2023-02-26T14:40:08.357Z,4.65
2023-02-26T14:42:47.333Z,4.63
2023-02-26T14:45:18.848Z,4.50
2023-02-26T14:47:48.848Z,5.38
2023-02-26T14:50:20.418Z,5.63
2023-02-26T14:52:52.988Z,4.15
2023-02-26T14:55:27.400Z,4.90
2023-02-26T14:58:17.593Z,4.30
2023-02-26T15:01:12.528Z,3.85
2023-02-26T15:04:14.091Z,5.25
2023-02-26T15:06:47.811Z,5.68
2023-02-26T15:09:29.570Z,6.65
2023-02-26T15:12:35.635Z,4.53
2023-02-26T15:15:19.167Z,8.55
2023-02-26T15:17:59.554Z,4.85
2023-02-26T15:21:00.007Z,4.82
2023-02-26T15:23:40.332Z,5.00
2023-02-26T15:26:10.643Z,4.75
2023-02-26T15:28:42.117Z,4.47
2023-02-26T15:31:13.873Z,7.10
2023-02-26T15:33:43.157Z,4.85
2023-02-26T15:36:20.150Z,4.70
2023-02-26T15:38:51.235Z,11.30
2023-02-26T15:41:20.087Z,5.45
2023-02-26T15:43:52.314Z,7.00
2023-02-26T15:46:30.811Z,6.18
2023-02-26T15:49:04.615Z,6.03
2023-02-26T15:51:33.197Z,12.73
2023-02-26T15:54:04.657Z,8.77
2023-02-26T15:56:37.904Z,6.43
2023-02-26T15:59:18.637Z,5.90
2023-02-26T16:01:47.365Z,5.45
2023-02-26T16:04:19.386Z,6.90
2023-02-26T16:06:58.894Z,5.85
2023-02-26T16:09:29.142Z,7.35
2023-02-26T16:12:00.827Z,5.57
2023-02-26T16:14:34.501Z,7.40
2023-02-26T16:17:03.531Z,11.13
2023-02-26T16:19:40.536Z,6.47
2023-02-26T16:22:42.052Z,6.63
2023-02-26T16:25:20.796Z,5.05
2023-02-26T16:28:07.389Z,6.22
2023-02-26T16:30:38.654Z,7.78
2023-02-26T16:33:13.536Z,7.03
2023-02-26T16:35:56.922Z,10.52
2023-02-26T16:38:33.929Z,7.32
2023-02-26T16:41:08.156Z,9.63
2023-02-26T16:43:49.063Z,9.70
2023-02-26T16:46:44.010Z,12.55
2023-02-26T16:49:28.031Z,8.32
2023-02-26T16:51:58.138Z,10.00
2023-02-26T16:54:37.253Z,11.75
2023-02-26T16:57:16.746Z,12.02
2023-02-26T16:59:51.462Z,11.82
2023-02-26T17:02:26.201Z,9.00
2023-02-26T17:05:02.842Z,14.77
2023-02-26T17:07:33.256Z,10.48
2023-02-26T17:10:11.778Z,10.15
2023-02-26T17:12:50.410Z,10.38
2023-02-26T17:15:37.557Z,10.90
2023-02-26T17:18:06.868Z,7.25
2023-02-26T17:20:35.987Z,12.57
2023-02-26T17:23:06.710Z,12.45
2023-02-26T17:25:38.559Z,13.35
2023-02-26T17:28:08.140Z,9.68
2023-02-26T17:30:36.932Z,9.25
2023-02-26T17:33:06.279Z,10.23
2023-02-26T17:35:35.005Z,11.55
2023-02-26T17:38:04.189Z,10.32
2023-02-26T17:40:37.785Z,12.15
2023-02-26T17:45:35.670Z,14.02
2023-02-26T17:48:04.944Z,9.10
2023-02-26T17:50:55.198Z,10.85
2023-02-26T17:53:28.745Z,7.32
2023-02-26T17:58:35.392Z,6.97
2023-02-26T18:01:05.429Z,14.93
2023-02-26T18:03:34.286Z,7.72
2023-02-26T18:06:03.522Z,8.90
2023-02-26T18:08:35.045Z,12.15
2023-02-26T18:11:04.876Z,8.48
2023-02-26T18:13:33.770Z,8.85
2023-02-26T18:16:04.192Z,9.50
2023-02-26T18:18:33.514Z,8.05
2023-02-26T18:21:02.443Z,11.23
2023-02-26T18:23:31.108Z,11.90
2023-02-26T18:26:00.744Z,8.32
2023-02-26T18:28:29.895Z,9.50
2023-02-26T18:30:59.544Z,9.43
2023-02-26T18:33:28.221Z,17.48
2023-02-26T18:35:58.541Z,12.32
2023-02-26T18:38:29.203Z,9.82
2023-02-26T18:40:58.088Z,11.68
2023-02-26T18:43:26.794Z,12.38
2023-02-26T18:45:55.696Z,11.82
2023-02-26T18:48:24.353Z,13.38
2023-02-26T18:50:53.500Z,13.15
2023-02-26T18:53:24.895Z,13.45
2023-02-26T18:55:54.132Z,15.85
2023-02-26T18:58:23.621Z,17.60
2023-02-26T19:00:53.305Z,18.42
2023-02-26T19:03:22.052Z,13.23
2023-02-26T19:06:01.389Z,18.00
2023-02-26T19:08:31.720Z,20.58
2023-02-26T19:11:00.821Z,17.25
2023-02-26T19:13:30.406Z,16.85
2023-02-26T19:15:59.055Z,17.42
2023-02-26T19:18:27.762Z,12.82
2023-02-26T19:20:56.429Z,19.45
2023-02-26T19:23:25.611Z,19.60
2023-02-26T19:25:54.264Z,18.95
2023-02-26T19:28:22.977Z,17.30
2023-02-26T19:30:56.014Z,16.67
2023-02-26T19:33:25.812Z,14.40
2023-02-26T19:35:54.632Z,15.88
2023-02-26T19:38:24.852Z,19.70
2023-02-26T19:40:53.406Z,15.90
2023-02-26T19:43:22.103Z,15.57
2023-02-26T19:45:50.920Z,15.68
2023-02-26T19:48:19.565Z,15.68
2023-02-26T19:50:48.168Z,16.67
2023-02-26T19:53:17.533Z,17.42
2023-02-26T19:55:46.197Z,21.65
2023-02-26T19:58:15.430Z,17.65
2023-02-26T20:00:44.302Z,14.00
2023-02-26T20:03:12.964Z,14.07
2023-02-26T20:05:40.929Z,14.25
2023-02-26T20:08:09.606Z,13.32
2023-02-26T20:10:38.386Z,16.33
2023-02-26T20:13:09.953Z,11.65
2023-02-26T20:15:38.661Z,11.88
2023-02-26T20:18:07.494Z,11.25
2023-02-26T20:20:36.140Z,8.75
2023-02-26T20:23:05.307Z,21.27
2023-02-26T20:25:33.926Z,10.27
2023-02-26T20:28:02.822Z,9.07
2023-02-26T20:30:31.683Z,13.82
2023-02-26T20:33:00.397Z,11.40
2023-02-26T20:35:29.180Z,16.63
2023-02-26T20:37:57.800Z,11.75
2023-02-26T20:40:26.358Z,15.02
2023-02-26T20:42:54.915Z,10.63
2023-02-26T20:45:23.534Z,11.20
2023-02-26T20:47:52.142Z,12.63
2023-02-26T20:50:21.816Z,10.38
2023-02-26T20:52:53.533Z,8.82
2023-02-26T20:55:22.206Z,12.38
2023-02-26T20:57:51.069Z,13.95
2023-02-26T21:00:20.175Z,7.72
2023-02-26T21:02:49.089Z,10.13
2023-02-26T21:05:18.246Z,8.95
2023-02-26T21:07:47.047Z,9.13
2023-02-26T21:10:17.559Z,8.00
2023-02-26T21:12:46.224Z,5.82
2023-02-26T21:15:15.593Z,7.20
2023-02-26T21:17:45.134Z,9.63
2023-02-26T21:20:18.662Z,9.38
2023-02-26T21:22:48.134Z,7.43
2023-02-26T21:25:16.989Z,8.57
2023-02-26T21:27:45.080Z,13.55
2023-02-26T21:30:14.690Z,6.05
2023-02-26T21:32:43.750Z,8.70
2023-02-26T21:35:18.083Z,8.65
2023-02-26T21:37:47.031Z,6.10
2023-02-26T21:40:16.960Z,7.55
2023-02-26T21:42:45.937Z,6.50
2023-02-26T21:45:14.997Z,7.60
2023-02-26T21:47:42.936Z,7.32
2023-02-26T21:50:12.147Z,6.13
2023-02-26T21:52:40.865Z,7.78
2023-02-26T21:55:12.935Z,5.95
2023-02-26T21:57:41.799Z,9.23
2023-02-26T22:00:14.151Z,9.13
2023-02-26T22:02:44.249Z,9.63
2023-02-26T22:05:13.724Z,5.57
2023-02-26T22:07:42.700Z,5.38
2023-02-26T22:10:12.284Z,7.22
2023-02-26T22:12:40.935Z,5.85
2023-02-26T22:15:10.201Z,16.20
2023-02-26T22:17:38.275Z,7.07
2023-02-26T22:20:11.524Z,9.68
2023-02-26T22:22:40.261Z,8.48
2023-02-26T22:25:10.058Z,11.38
2023-02-26T22:27:39.966Z,7.05
2023-02-26T22:30:09.748Z,5.15
2023-02-26T22:32:38.357Z,7.00
2023-02-26T22:35:07.499Z,8.90
2023-02-26T22:37:36.918Z,5.05
2023-02-26T22:40:06.027Z,5.65
2023-02-26T22:42:34.726Z,5.95
2023-02-26T22:45:03.319Z,10.30
2023-02-26T22:47:32.770Z,6.15
2023-02-26T22:50:01.498Z,11.27
2023-02-26T22:52:30.106Z,13.80
2023-02-26T22:54:58.988Z,6.20
2023-02-26T22:57:27.662Z,5.55
2023-02-26T22:59:56.299Z,6.40
2023-02-26T23:02:25.017Z,8.05
2023-02-26T23:04:53.671Z,5.68
2023-02-26T23:07:21.669Z,5.95
2023-02-26T23:09:50.439Z,5.53
2023-02-26T23:12:19.089Z,5.05
2023-02-26T23:14:47.700Z,8.38
2023-02-26T23:17:16.333Z,8.52
2023-02-26T23:19:45.033Z,6.10
2023-02-26T23:22:13.113Z,5.35
2023-02-26T23:24:42.811Z,5.60
2023-02-26T23:27:11.396Z,8.05
2023-02-26T23:29:39.993Z,6.28
2023-02-26T23:32:08.678Z,5.07
2023-02-26T23:34:37.433Z,5.93
2023-02-26T23:37:06.060Z,5.15
2023-02-26T23:39:34.689Z,6.22
2023-02-26T23:42:03.421Z,6.70
2023-02-26T23:44:32.042Z,10.40
2023-02-26T23:47:00.926Z,7.38
2023-02-26T23:49:29.562Z,5.60
2023-02-26T23:51:58.212Z,8.68
2023-02-26T23:54:26.968Z,6.13
2023-02-26T23:56:55.657Z,5.63
2023-02-26T23:59:24.281Z,13.02
